Terminal Aerodrome Forecast
Issued by NWS Tampa Bay Area, FL

Home | Current Version | Previous Version | Text Only | Print | Product List | Glossary On
Versions: 1 2 3 4 5 6 7 8 9 10 11 12 13 14
539
FTUS42 KTBW 301733
TAFSRQ
TAF
KSRQ 301733Z 3018/0118 14015G22KT P6SM BKN050 BKN250
     FM302000 18015G23KT P6SM SCT050 SCT250
     FM010100 13011KT P6SM FEW040 SCT250
     FM011400 17014G22KT P6SM SCT040 BKN250=

USA.gov is the U.S. government's official web portal to all federal, state and local government web resources and services.